• Join FlightAware (Why Join?)
  • Login
  • US Flag GB Flag 
05:59 EDT


 

Airport Tracker/Info


-or-


 

Live Flight TrackerFlight Track Log ✈ AAL1 ✈ 02-Dec-2011 ✈ KJFK - KLAX

Flight Track Log - Related Links

Times and Time Zones

All times are in EST time to prevent confusion due to time zone crossing. See the AAL1 flight status page for this flight to view local times or setup timezone preferences in your user account.

Time Position Orientation Groundspeed Altitude Reporting Facility
EST Latitude Longitude Course Direction KTS MPH feet Rate Location/Type
09:17 40.7345 -73.8426 125° Southeast  Level FlightAware Approximate
09:21 40.6667 -73.7167 62° Northeast 199 229 2,100  Level New York TRACON
09:22 40.7000 -73.6333 52° Northeast 251 289 4,600 2,220 Climbing New York TRACON
09:23 40.7500 -73.5500 45° Northeast 286 329 6,800 2,160 Climbing New York TRACON
09:24 40.8000 -73.4833 323° Northwest 304 350 8,800 2,100 Climbing New York TRACON
09:25 40.8667 -73.5500 315° West 269 310 11,000 1,980 Climbing New York TRACON
09:26 40.9167 -73.6167 311° West 311 358 13,000 2,160 Climbing New York TRACON
09:27 40.9833 -73.7167 309° West 327 376 15,400 1,980 Climbing New York TRACON
09:28 41.0333 -73.8000 312° West 337 388 17,000 780 Climbing New York TRACON
09:30 41.1717 -74.0017 311° West 335 386 18,000 1,020 Climbing New York Center
09:31 41.2394 -74.1069 312° West 340 391 20,500 2,400 Climbing New York Center
09:32 41.3033 -74.2011 312° West 345 397 22,800 2,100 Climbing New York Center
09:33 41.3711 -74.3014 307° West 345 397 24,800 1,140 Climbing New York Center
09:34 41.4306 -74.4069 298° West 355 409 25,200 1,080 Climbing New York Center
09:35 41.4769 -74.5228 298° West 355 409 27,000 1,800 Climbing New York Center
09:36 41.5231 -74.6392 302° West 355 409 28,800 1,680 Climbing New York Center
09:37 41.5794 -74.7617 299° West 366 421 30,400 1,920 Climbing New York Center
09:38 41.6275 -74.8756 300° West 366 421 32,600 1,680 Climbing New York Center
09:39 41.6775 -74.9925 300° West 366 421 33,900 660 Climbing New York Center
09:40 41.7256 -75.1039 299° West 366 421 34,000  Climbing New York Center
09:41 41.7714 -75.2153 300° West 354 407 34,000  Level New York Center
09:42 41.8175 -75.3214 299° West 344 396 34,000  Level New York Center
09:43 41.8611 -75.4272 300° West 339 390 34,000  Level New York Center
09:44 41.9069 -75.5336 299° West 339 390 34,000  Level New York Center
09:45 41.9525 -75.6428 298° West 339 390 34,000  Level New York Center
09:46 41.9978 -75.7578 300° West 339 390 34,000  Level New York Center
09:47 42.0450 -75.8675 299° West 339 390 34,000  Level New York Center
09:49 42.1233 -76.0586 222° Southwest 339 390 34,000  Level Cleveland Center
09:49 42.1167 -76.0667 303° West 340 391 34,000  Level Toronto Center
09:50 42.1650 -76.1678 292° West 339 390 34,000  Level Cleveland Center
09:51 42.2008 -76.2858 296° West 339 390 34,000  Level Cleveland Center
09:52 42.2450 -76.4092 293° West 339 390 34,000  Level Cleveland Center
09:53 42.2803 -76.5219 295° West 334 384 34,000  Level Cleveland Center
09:54 42.3175 -76.6319 293° West 328 377 34,000  Level Cleveland Center
09:55 42.3525 -76.7450 293° West 335 386 34,000  Level Cleveland Center
09:56 42.3875 -76.8581 293° West 330 380 34,000  Level Cleveland Center
09:57 42.4222 -76.9686 293° West 330 380 34,000  Level Cleveland Center
09:58 42.4572 -77.0819 294° West 330 380 34,000  Level Cleveland Center
09:59 42.4892 -77.1817 293° West 325 374 34,000  Level Cleveland Center
10:00 42.5239 -77.2925 292° West 325 374 34,000  Level Cleveland Center
10:01 42.5561 -77.4036 292° West 325 374 34,000  Level Cleveland Center
10:02 42.5883 -77.5147 293° West 325 374 34,000  Level Cleveland Center
10:03 42.6225 -77.6261 293° West 325 374 34,000  Level Cleveland Center
10:04 42.6564 -77.7344 293° West 325 374 34,000  Level Cleveland Center
10:05 42.6947 -77.8569 292° West 325 374 34,000  Level Cleveland Center
10:06 42.7286 -77.9686 291° West 325 374 34,000  Level Cleveland Center
10:07 42.7558 -78.0664 293° West 320 368 34,000  Level Cleveland Center
10:08 42.7894 -78.1756 293° West 320 368 34,000  Level Cleveland Center
10:09 42.8231 -78.2847 290° West 320 368 34,000  Level Cleveland Center
10:10 42.8544 -78.3997 293° West 320 368 34,000  Level Cleveland Center
10:11 42.8897 -78.5117 291° West 320 368 34,000  Level Cleveland Center
10:12 42.9231 -78.6297 296° West 325 374 34,000  Level Cleveland Center
10:14 43.0000 -78.8500 291° West 330 380 34,000  Level Toronto Center
10:15 43.0333 -78.9667 291° West 330 380 34,000  Level Toronto Center
10:16 43.0667 -79.0833 289° West 340 391 34,000  Level Toronto Center
10:17 43.1000 -79.2167 291° West 340 391 34,000  Level Toronto Center
10:18 43.1333 -79.3333 300° West 340 391 34,000  Level Toronto Center
10:19 43.1833 -79.4500 291° West 340 391 34,000  Level Toronto Center
10:20 43.2167 -79.5667 291° West 340 391 34,000  Level Toronto Center
10:21 43.2500 -79.6833 289° West 350 403 34,000  Level Toronto Center
10:22 43.2833 -79.8167 289° West 340 391 34,000  Level Toronto Center
10:23 43.3167 -79.9500 301° West 350 403 34,000  Level Toronto Center
10:24 43.3667 -80.0667 292° West 350 403 34,000  Level Toronto Center
10:25 43.4000 -80.1833 289° West 350 403 34,000  Level Toronto Center
10:26 43.4333 -80.3167 301° West 360 414 34,000  Level Toronto Center
10:27 43.4833 -80.4333 287° West 370 426 34,000  Level Toronto Center
10:28 43.5167 -80.5833 289° West 370 426 34,000  Level Toronto Center
10:29 43.5500 -80.7167 289° West 370 426 34,100 780 Climbing Toronto Center
10:30 43.5833 -80.8500 292° West 370 426 35,600 1,560 Climbing Toronto Center
10:31 43.6167 -80.9667 301° West 360 414 37,300 1,200 Climbing Toronto Center
10:32 43.6667 -81.0833 289° West 350 403 38,000 300 Climbing Toronto Center
10:33 43.7000 -81.2167 292° West 350 403 38,000  Level Toronto Center
10:34 43.7333 -81.3333 301° West 350 403 38,000  Level Toronto Center
10:35 43.7833 -81.4500 287° West 350 403 38,000  Level Toronto Center
10:36 43.8167 -81.6000 292° West 350 403 38,000  Level Toronto Center
10:37 43.8500 -81.7167 301° West 350 403 38,000  Level Toronto Center
10:38 43.9000 -81.8333 280° West 350 403 38,000  Level Toronto Center
10:39 43.9167 -81.9667 292° West 350 403 38,000  Level Toronto Center
10:40 43.9500 -82.0833 301° West 350 403 38,000  Level Toronto Center
10:41 44.0000 -82.2000 287° West 350 403 38,000  Level Toronto Center
10:42 44.0333 -82.3500 294° West 360 414 38,000  Level Toronto Center
10:42 44.0478 -82.3953 292° West 355 409 38,000  Level Minneapolis Center
10:43 44.0853 -82.5217 291° West 355 409 38,000  Level Minneapolis Center
10:44 44.1208 -82.6483 291° West 355 409 38,000  Level Minneapolis Center
10:45 44.1561 -82.7756 291° West 355 409 38,000  Level Minneapolis Center
10:46 44.1911 -82.9028 290° West 355 409 38,000  Level Minneapolis Center
10:47 44.2242 -83.0306 292° West 355 409 38,000  Level Minneapolis Center
10:48 44.2614 -83.1606 291° West 355 409 38,000  Level Minneapolis Center
10:49 44.2961 -83.2883 292° West 355 409 38,000  Level Minneapolis Center
10:50 44.3331 -83.4186 291° West 355 409 38,000  Level Minneapolis Center
10:51 44.3697 -83.5492 290° West 360 414 38,000  Level Minneapolis Center
10:52 44.4042 -83.6803 291° West 360 414 38,000  Level Minneapolis Center
10:53 44.4408 -83.8111 290° West 360 414 38,000  Level Minneapolis Center
10:54 44.4756 -83.9483 291° West 366 421 38,000  Level Minneapolis Center
10:55 44.5117 -84.0797 291° West 366 421 38,000  Level Minneapolis Center
10:56 44.5478 -84.2111 289° West 371 427 38,000  Level Minneapolis Center
10:57 44.5792 -84.3406 291° West 371 427 38,000  Level Minneapolis Center
10:58 44.6150 -84.4725 291° West 371 427 38,000  Level Minneapolis Center
10:59 44.6503 -84.6014 289° West 366 421 38,000  Level Minneapolis Center
11:00 44.6814 -84.7314 269° West 360 414 38,000  Level Minneapolis Center
11:01 44.6794 -84.8692 268° West 353 406 38,000  Level Minneapolis Center
11:02 44.6756 -85.0103 269° West 353 406 38,000  Level Minneapolis Center
11:03 44.6731 -85.1453 267° West 353 406 38,000  Level Minneapolis Center
11:04 44.6686 -85.2836 269° West 353 406 38,000  Level Minneapolis Center
11:05 44.6661 -85.4214 267° West 353 406 38,000  Level Minneapolis Center
11:06 44.6611 -85.5597 268° West 353 406 38,000  Level Minneapolis Center
11:07 44.6572 -85.7122 269° West 359 413 38,000  Level Minneapolis Center
11:08 44.6550 -85.8325 268° West 359 413 38,000  Level Minneapolis Center
11:09 44.6519 -85.9733 267° West 365 420 38,000  Level Minneapolis Center
11:10 44.6467 -86.1142 268° West 360 414 38,000  Level Minneapolis Center
11:11 44.6419 -86.2669 268° West 360 414 38,000  Level Minneapolis Center
11:12 44.6383 -86.4075 267° West 370 426 38,000  Level Minneapolis Center
11:13 44.6325 -86.5486 267° West 370 426 38,000  Level Minneapolis Center
11:14 44.6264 -86.6894 267° West 370 426 38,000  Level Minneapolis Center
11:15 44.6217 -86.8217 267° West 370 426 38,000  Level Minneapolis Center
11:16 44.6161 -86.9742 266° West 427 491 38,000  Level Minneapolis Center
11:17 44.6097 -87.1181 267° West 393 452 38,000  Level Minneapolis Center
11:18 44.6050 -87.2586 266° West 373 429 38,000  Level Minneapolis Center
11:19 44.5983 -87.4025 267° West 373 429 38,000  Level Minneapolis Center
11:20 44.5933 -87.5458 265° West 373 429 38,000  Level Minneapolis Center
11:21 44.5839 -87.6869 267° West 373 429 38,000  Level Minneapolis Center
11:22 44.5789 -87.8303 266° West 373 429 38,000  Level Minneapolis Center
11:23 44.5725 -87.9564 267° West 373 429 38,000  Level Minneapolis Center
11:24 44.5667 -88.0969 265° West 368 423 38,000  Level Minneapolis Center
11:25 44.5586 -88.2347 267° West 361 415 38,000  Level Minneapolis Center
11:26 44.5528 -88.3783 266° West 367 422 38,000  Level Minneapolis Center
11:27 44.5464 -88.5186 266° West 367 422 38,000  Level Minneapolis Center
11:28 44.5400 -88.6592 266° West 367 422 38,000  Level Minneapolis Center
11:29 44.5336 -88.8025 266° West 367 422 38,000  Level Minneapolis Center
11:30 44.5267 -88.9458 268° West 373 429 38,000 -120 Level Minneapolis Center
11:31 44.5239 -89.0858 265° West 368 423 37,800 -1,740 Descending Minneapolis Center
11:32 44.5147 -89.2292 266° West 375 432 34,600 -2,460 Descending Minneapolis Center
11:33 44.5078 -89.3753 266° West 380 437 32,900 -1,320 Descending Minneapolis Center
11:34 44.5006 -89.5214 265° West 375 432 32,000 -480 Descending Minneapolis Center
11:35 44.4925 -89.6558 267° West 357 411 32,000  Level Minneapolis Center
11:36 44.4869 -89.7989 264° West 362 417 32,000  Level Minneapolis Center
11:37 44.4769 -89.9422 266° West 367 422 32,000  Level Minneapolis Center
11:38 44.4706 -90.0822 265° West 368 423 32,000  Level Minneapolis Center
11:39 44.4622 -90.2222 264° West 368 423 32,000  Level Minneapolis Center
11:40 44.4517 -90.3625 267° West 368 423 32,000  Level Minneapolis Center
11:41 44.4469 -90.4994 265° West 368 423 32,000  Level Minneapolis Center
11:42 44.4381 -90.6425 265° West 368 423 32,000  Level Minneapolis Center
11:43 44.4292 -90.7853 267° West 368 423 32,000  Level Minneapolis Center
11:44 44.4253 -90.8931 265° West 368 423 32,000  Level Minneapolis Center
11:45 44.4161 -91.0475 265° West 368 423 32,000  Level Minneapolis Center
11:46 44.4069 -91.2047 264° West 368 423 32,000  Level Minneapolis Center
11:47 44.3972 -91.3447 266° West 368 423 32,000  Level Minneapolis Center
11:48 44.3894 -91.4900 264° West 368 423 32,000  Level Minneapolis Center
11:49 44.3792 -91.6356 264° West 368 423 32,000  Level Minneapolis Center
11:50 44.3689 -91.7753 265° West 373 429 32,000  Level Minneapolis Center
11:51 44.3606 -91.9178 264° West 373 429 32,000  Level Minneapolis Center
11:52 44.3500 -92.0633 264° West 373 429 32,000  Level Minneapolis Center
11:53 44.3392 -92.2058 264° West 373 429 32,000  Level Minneapolis Center
11:54 44.3300 -92.3336 264° West 368 423 32,000  Level Minneapolis Center
11:55 44.3189 -92.4789 265° West 374 430 32,000  Level Minneapolis Center
11:56 44.3094 -92.6211 264° West 374 430 32,000  Level Minneapolis Center
11:57 44.2981 -92.7606 264° West 374 430 32,000  Level Minneapolis Center
11:58 44.2864 -92.9056 263° West 369 425 32,000  Level Minneapolis Center
11:59 44.2722 -93.0622 264° West 369 425 32,000  Level Minneapolis Center
12:00 44.2622 -93.2042 263° West 369 425 32,000  Level Minneapolis Center
12:01 44.2500 -93.3492 263° West 369 425 32,000  Level Minneapolis Center
12:02 44.2375 -93.4939 264° West 374 430 32,000  Level Minneapolis Center
12:03 44.2269 -93.6389 263° West 374 430 32,000  Level Minneapolis Center
12:04 44.2142 -93.7806 263° West 379 436 32,000  Level Minneapolis Center
12:05 44.2031 -93.9136 262° West 385 443 32,000  Level Minneapolis Center
12:06 44.1878 -94.0611 263° West 385 443 32,000  Level Minneapolis Center
12:07 44.1744 -94.2056 264° West 385 443 32,000  Level Minneapolis Center
12:08 44.1631 -94.3472 263° West 385 443 32,000  Level Minneapolis Center
12:09 44.1492 -94.4944 262° West 390 449 32,000  Level Minneapolis Center
12:10 44.1356 -94.6217 266° West 383 441 32,000  Level Minneapolis Center
12:11 44.1275 -94.7775 261° West 383 441 32,000  Level Minneapolis Center
12:12 44.1111 -94.9217 262° West 383 441 32,000  Level Minneapolis Center
12:13 44.0967 -95.0628 263° West 383 441 32,000  Level Minneapolis Center
12:14 44.0839 -95.2042 262° West 383 441 32,000  Level Minneapolis Center
12:15 44.0692 -95.3511 261° West 383 441 32,000  Level Minneapolis Center
12:16 44.0517 -95.5092 262° West 383 441 32,000  Level Minneapolis Center
12:17 44.0364 -95.6531 262° West 388 447 32,000  Level Minneapolis Center
12:18 44.0208 -95.7997 261° West 388 447 32,000  Level Minneapolis Center
12:19 44.0053 -95.9406 260° West 388 447 32,000  Level Minneapolis Center
12:20 43.9875 -96.0869 262° West 388 447 32,000  Level Minneapolis Center
12:21 43.9739 -96.2161 261° West 388 447 32,000  Level Minneapolis Center
12:22 43.9575 -96.3622 262° West 388 447 32,000  Level Minneapolis Center
12:23 43.9433 -96.5058 261° West 388 447 32,000  Level Minneapolis Center
12:24 43.9267 -96.6519 260° West 388 447 32,000  Level Minneapolis Center
12:25 43.9075 -96.8092 261° West 388 447 32,000  Level Minneapolis Center
12:26 43.8903 -96.9581 262° West 388 447 32,000  Level Minneapolis Center
12:27 43.8753 -97.1042 261° West 388 447 32,000  Level Minneapolis Center
12:28 43.8578 -97.2497 262° West 388 447 32,000  Level Minneapolis Center
12:29 43.8422 -97.3956 262° West 388 447 32,000  Level Minneapolis Center
12:30 43.8297 -97.5156 260° West 388 447 32,000  Level Minneapolis Center
12:31 43.8089 -97.6783 260° West 388 447 32,000  Level Minneapolis Center
12:32 43.7908 -97.8236 260° West 388 447 32,000  Level Minneapolis Center
12:33 43.7725 -97.9717 260° West 388 447 32,000  Level Minneapolis Center
12:34 43.7539 -98.1169 260° West 388 447 32,000  Level Minneapolis Center
12:35 43.7350 -98.2650 260° West 388 447 32,000  Level Minneapolis Center
12:36 43.7161 -98.4128 259° West 388 447 32,000 480 Level Minneapolis Center
12:37 43.6942 -98.5747 262° West 388 447 33,000 1,740 Climbing Minneapolis Center
12:38 43.6789 -98.7197 260° West 393 452 35,500 2,340 Climbing Minneapolis Center
12:39 43.6625 -98.8475 258° West 372 428 37,700 1,200 Climbing Minneapolis Center
12:40 43.6436 -98.9750 260° West 353 406 38,000 120 Climbing Minneapolis Center
12:41 43.6269 -99.1025 259° West 347 399 38,000  Level Minneapolis Center
12:42 43.6075 -99.2356 260° West 354 407 38,000  Level Minneapolis Center
12:43 43.5900 -99.3686 258° West 354 407 38,000  Level Minneapolis Center
12:44 43.5706 -99.4986 259° West 354 407 38,000  Level Minneapolis Center
12:45 43.5506 -99.6342 259° West 359 413 38,000  Level Minneapolis Center
12:46 43.5325 -99.7669 259° West 359 413 38,000  Level Minneapolis Center
12:47 43.5153 -99.8883 254° West 359 413 38,000  Level Minneapolis Center
12:50 43.4436 -100.2239 251° West 354 407 38,000  Level Denver Center
12:51 43.4128 -100.3500 252° West 360 414 38,000  Level Denver Center
12:52 43.3822 -100.4817 250° West 360 414 38,000  Level Denver Center
12:53 43.3489 -100.6106 254° West 360 414 38,000  Level Denver Center
12:54 43.3203 -100.7444 249° West 360 414 38,000  Level Denver Center
12:55 43.2867 -100.8675 250° West 354 407 38,000  Level Denver Center
12:56 43.2531 -100.9958 252° West 359 413 38,000  Level Denver Center
12:57 43.2217 -101.1269 252° West 359 413 38,000  Level Denver Center
12:58 43.1919 -101.2547 249° West 359 413 38,000  Level Denver Center
12:59 43.1558 -101.3803 251° West 359 413 38,000  Level Denver Center
13:00 43.1236 -101.5081 251° West 354 407 38,000  Level Denver Center
13:01 43.0914 -101.6328 249° West 354 407 38,000  Level Denver Center
13:02 43.0569 -101.7575 252° West 354 407 38,000  Level Denver Center
13:03 43.0264 -101.8822 252° West 359 413 38,000  Level Denver Center
13:04 42.9958 -102.0092 249° West 359 413 38,000  Level Denver Center
13:05 42.9628 -102.1250 249° West 354 407 38,000  Level Denver Center
13:06 42.9278 -102.2522 251° West 354 407 38,000  Level Denver Center
13:07 42.8911 -102.3936 251° West 354 407 38,000  Level Denver Center
13:08 42.8581 -102.5233 248° West 354 407 38,000  Level Denver Center
13:09 42.8244 -102.6386 250° West 354 407 38,000  Level Denver Center
13:10 42.7853 -102.7853 249° West 365 420 38,000  Level Denver Center
13:11 42.7497 -102.9089 251° West 370 426 38,000  Level Denver Center
13:12 42.7161 -103.0436 248° West 370 426 38,000  Level Denver Center
13:13 42.6819 -103.1583 249° West 375 432 38,000  Level Denver Center
13:14 42.6422 -103.3017 251° West 370 426 38,000  Level Denver Center
13:15 42.6081 -103.4331 248° West 375 432 38,000  Level Denver Center
13:16 42.5697 -103.5617 249° West 370 426 38,000  Level Denver Center
13:17 42.5372 -103.6789 248° West 375 432 38,000  Level Denver Center
13:18 42.4947 -103.8214 249° West 375 432 38,000  Level Denver Center
13:19 42.4578 -103.9525 248° West 375 432 38,000  Level Denver Center
13:20 42.4189 -104.0806 248° West 375 432 38,000  Level Denver Center
13:21 42.3839 -104.1997 249° West 375 432 38,000  Level Denver Center
13:22 42.3467 -104.3303 249° West 375 432 38,000  Level Denver Center
13:23 42.3056 -104.4750 248° West 375 432 38,000  Level Denver Center
13:24 42.2661 -104.6081 249° West 375 432 38,000  Level Denver Center
13:25 42.2283 -104.7408 248° West 375 432 38,000  Level Denver Center
13:26 42.1928 -104.8622 248° West 375 432 38,000  Level Denver Center
13:27 42.1486 -105.0089 249° West 380 437 38,000  Level Denver Center
13:28 42.1108 -105.1414 248° West 380 437 38,000  Level Denver Center
13:29 42.0706 -105.2736 247° West 380 437 38,000  Level Denver Center
13:30 42.0319 -105.3947 248° West 380 437 38,000  Level Denver Center
13:31 41.9875 -105.5433 249° West 390 449 38,000  Level Denver Center
13:32 41.9489 -105.6781 247° West 398 458 38,000  Level Denver Center
13:33 41.9039 -105.8181 247° West 398 458 38,000  Level Denver Center
13:34 41.8650 -105.9411 245° Southwest 398 458 38,000  Level Denver Center
13:35 41.8133 -106.0892 241° Southwest 398 458 38,000  Level Denver Center
13:36 41.7594 -106.2203 240° Southwest 403 464 38,000  Level Denver Center
13:37 41.7033 -106.3511 241° Southwest 408 470 38,000  Level Denver Center
13:38 41.6556 -106.4678 239° Southwest 403 464 38,000  Level Denver Center
13:39 41.5992 -106.5928 241° Southwest 403 464 38,000  Level Denver Center
13:40 41.5386 -106.7369 241° Southwest 397 457 38,000  Level Denver Center
13:41 41.4861 -106.8642 241° Southwest 402 463 38,000  Level Denver Center
13:42 41.4375 -106.9803 239° Southwest 396 456 38,000  Level Denver Center
13:43 41.3786 -107.1100 241° Southwest 402 463 38,000  Level Denver Center
13:44 41.3194 -107.2503 240° Southwest 396 456 38,000  Level Denver Center
13:45 41.2622 -107.3822 243° Southwest 402 463 38,000  Level Denver Center
13:46 41.2172 -107.4975 239° Southwest 397 457 38,000  Level Denver Center
13:47 41.1597 -107.6264 240° Southwest 397 457 38,000  Level Denver Center
13:48 41.1000 -107.7658 241° Southwest 397 457 38,000  Level Denver Center
13:49 41.0442 -107.8969 240° Southwest 402 463 38,000  Level Denver Center
13:50 40.9947 -108.0086 243° Southwest 396 456 38,000  Level Denver Center
13:51 40.9450 -108.1394 241° Southwest 396 456 38,000  Level Denver Center
13:51 40.9372 -108.1578 243° Southwest 399 459 38,000  Level Salt Lake Center
13:52 40.8881 -108.2836 243° Southwest 401 461 38,000  Level Salt Lake Center
13:53 40.8389 -108.4094 243° Southwest 401 461 38,000  Level Salt Lake Center
13:54 40.7822 -108.5556 242° Southwest 400 460 38,000  Level Salt Lake Center
13:55 40.7322 -108.6800 243° Southwest 400 460 38,000  Level Salt Lake Center
13:56 40.6747 -108.8256 243° Southwest 400 460 38,000  Level Salt Lake Center
13:57 40.6258 -108.9492 243° Southwest 398 458 38,000  Level Salt Lake Center
13:58 40.5683 -109.0947 242° Southwest 399 459 38,000  Level Salt Lake Center
13:59 40.5136 -109.2297 243° Southwest 399 459 38,000  Level Salt Lake Center
14:00 40.4647 -109.3536 242° Southwest 399 459 38,000  Level Salt Lake Center
14:01 40.4056 -109.4994 242° Southwest 404 465 38,000  Level Salt Lake Center
14:02 40.3550 -109.6244 242° Southwest 406 467 38,000  Level Salt Lake Center
14:03 40.2953 -109.7706 242° Southwest 407 468 38,000  Level Salt Lake Center
14:04 40.2436 -109.8969 242° Southwest 411 473 38,000  Level Salt Lake Center
14:05 40.1914 -110.0239 235° Southwest 413 475 38,000  Level Salt Lake Center
14:06 40.1183 -110.1594 223° Southwest 414 476 38,000  Level Salt Lake Center
14:07 40.0386 -110.2553 222° Southwest 409 471 38,000  Level Salt Lake Center
14:08 39.9433 -110.3667 222° Southwest 409 471 38,000  Level Salt Lake Center
14:09 39.8619 -110.4619 222° Southwest 411 473 38,000  Level Salt Lake Center
14:10 39.7664 -110.5733 222° Southwest 412 474 38,000  Level Salt Lake Center
14:11 39.6850 -110.6686 222° Southwest 413 475 38,000  Level Salt Lake Center
14:12 39.5889 -110.7797 222° Southwest 414 476 38,000  Level Salt Lake Center
14:13 39.5072 -110.8747 221° Southwest 414 476 38,000  Level Salt Lake Center
14:15 39.4108 -110.9842 222° Southwest 414 476 38,000  Level Salt Lake Center
14:16 39.3289 -111.0786 221° Southwest 413 475 38,000  Level Salt Lake Center
14:17 39.2325 -111.1881 221° Southwest 413 475 38,000  Level Salt Lake Center
14:18 39.1411 -111.2897 222° Southwest 414 476 38,000  Level Salt Lake Center
14:19 39.0542 -111.3892 221° Southwest 412 474 38,000  Level Salt Lake Center
14:20 38.9661 -111.4883 220° Southwest 413 475 38,000  Level Salt Lake Center
14:21 38.8764 -111.5867 221° Southwest 417 480 38,000  Level Salt Lake Center
14:22 38.7872 -111.6864 221° Southwest 419 482 38,000  Level Salt Lake Center
14:23 38.6972 -111.7858 221° Southwest 419 482 38,000  Level Salt Lake Center
14:24 38.6064 -111.8867 220° Southwest 423 487 38,000  Level Salt Lake Center
14:25 38.5156 -111.9847 223° Southwest 422 486 38,000  Level Salt Lake Center
14:26 38.4294 -112.0889 226° Southwest 421 484 38,000  Level Salt Lake Center
14:27 38.3467 -112.1978 225° Southwest 421 484 38,000  Level Salt Lake Center
14:28 38.2625 -112.3042 225° Southwest 421 484 38,000  Level Salt Lake Center
14:29 38.1631 -112.4314 225° Southwest 418 481 38,000  Level Salt Lake Center
14:30 38.0811 -112.5369 225° Southwest 416 479 38,000  Level Salt Lake Center
14:31 37.9994 -112.6411 225° Southwest 412 474 38,000  Level Salt Lake Center
14:32 37.9169 -112.7461 225° Southwest 415 478 38,000  Level Salt Lake Center
14:33 37.8339 -112.8508 224° Southwest 416 479 38,000  Level Salt Lake Center
14:34 37.7500 -112.9542 224° Southwest 418 481 38,000  Level Salt Lake Center
14:35 37.6664 -113.0564 224° Southwest 420 483 38,000  Level Salt Lake Center
14:36 37.5817 -113.1589 224° Southwest 422 486 38,000 -120 Level Salt Lake Center
14:37 37.4803 -113.2814 224° Southwest 419 482 37,800 -900 Descending Salt Lake Center
14:38 37.3961 -113.3836 223° Southwest 419 482 36,200 -1,740 Descending Salt Lake Center
14:39 37.3083 -113.4872 223° Southwest 421 484 34,300 -1,680 Descending Salt Lake Center
14:40 37.2206 -113.5914 223° Southwest 426 490 32,800 -1,140 Descending Salt Lake Center
14:41 37.1344 -113.6933 225° Southwest 424 488 32,000 -600 Descending Salt Lake Center
14:42 37.1144 -113.7183 223° Southwest 428 493 32,000  Level Los Angeles Center
14:43 37.0308 -113.8172 221° Southwest 422 486 32,000  Level Los Angeles Center
14:44 36.9389 -113.9186 224° Southwest 416 479 32,000  Level Los Angeles Center
14:45 36.8572 -114.0169 224° Southwest 410 472 32,000  Level Los Angeles Center
14:46 36.7939 -114.0939 224° Southwest 410 472 32,000  Level Los Angeles Center
14:47 36.7078 -114.1969 222° Southwest 404 465 32,000  Level Los Angeles Center
14:48 36.6136 -114.3028 224° Southwest 404 465 32,000  Level Los Angeles Center
14:49 36.5336 -114.3978 222° Southwest 404 465 32,000  Level Los Angeles Center
14:50 36.4514 -114.4897 224° Southwest 404 465 32,000  Level Los Angeles Center
14:51 36.3692 -114.5869 223° Southwest 409 471 32,000  Level Los Angeles Center
14:52 36.2889 -114.6811 223° Southwest 409 471 32,000  Level Los Angeles Center
14:53 36.2067 -114.7753 223° Southwest 409 471 32,000  Level Los Angeles Center
14:54 36.1408 -114.8508 223° Southwest 409 471 32,000  Level Los Angeles Center
14:55 36.0519 -114.9550 222° Southwest 409 471 32,000  Level Los Angeles Center
14:56 35.9714 -115.0461 222° Southwest 409 471 32,000  Level Los Angeles Center
14:57 35.8908 -115.1369 224° Southwest 404 465 32,000  Level Los Angeles Center
14:58 35.8122 -115.2300 222° Southwest 404 465 32,000  Level Los Angeles Center
14:59 35.7294 -115.3206 222° Southwest 399 459 32,000  Level Los Angeles Center
15:00 35.6486 -115.4106 224° Southwest 399 459 32,000  Level Los Angeles Center
15:01 35.5700 -115.5033 222° Southwest 399 459 32,000  Level Los Angeles Center
15:02 35.4889 -115.5933 222° Southwest 399 459 32,000  Level Los Angeles Center
15:03 35.4039 -115.6856 221° Southwest 399 459 32,000  Level Los Angeles Center
15:04 35.3206 -115.7750 226° Southwest 399 459 32,000  Level Los Angeles Center
15:05 35.2458 -115.8694 220° Southwest 394 453 32,000  Level Los Angeles Center
15:06 35.1603 -115.9561 223° Southwest 394 453 32,000  Level Los Angeles Center
15:07 35.0811 -116.0478 222° Southwest 394 453 32,000 -240 Level Los Angeles Center
15:08 34.9997 -116.1364 223° Southwest 394 453 31,600 -780 Descending Los Angeles Center
15:09 34.9183 -116.2275 222° Southwest 394 453 30,500 -1,140 Descending Los Angeles Center
15:10 34.8367 -116.3186 222° Southwest 389 448 29,400 -1,080 Descending Los Angeles Center
15:11 34.7531 -116.4094 222° Southwest 402 463 28,400 -1,140 Descending Los Angeles Center
15:12 34.6694 -116.5000 221° Southwest 402 463 27,200 -720 Descending Los Angeles Center
15:13 34.5794 -116.5956 222° Southwest 407 468 27,000 -120 Descending Los Angeles Center
15:14 34.4869 -116.6983 222° Southwest 436 502 27,000 -180 Level Los Angeles Center
15:15 34.3925 -116.8008 223° Southwest 447 514 26,700 -1,920 Descending Los Angeles Center
15:16 34.2981 -116.9058 222° Southwest 452 520 23,200 -3,300 Descending Los Angeles Center
15:17 34.2056 -117.0053 222° Southwest 452 520 20,100 -2,700 Descending Los Angeles Center
15:18 34.1086 -117.1122 244° Southwest 452 520 17,900 -1,980 Descending Los Angeles Center
15:18 34.1000 -117.1333 243° Southwest 403 464 17,800 -1,440 Descending Southern California TRACON
15:19 34.0500 -117.2500 259° West 366 421 16,200 -1,440 Descending Southern California TRACON
15:20 34.0333 -117.3500 270° West 324 373 14,900 -1,440 Descending Southern California TRACON
15:21 34.0333 -117.4500 259° West 308 354 13,400 -1,440 Descending Southern California TRACON
15:22 34.0167 -117.5500 270° West 294 338 12,100 -1,320 Descending Southern California TRACON
15:23 34.0167 -117.6500 259° West 284 327 10,800 -1,320 Descending Southern California TRACON
15:24 34.0000 -117.7500 270° West 280 322 9,500 -1,320 Descending Southern California TRACON
15:25 34.0000 -117.8333 259° West 279 321 8,200 -1,200 Descending Southern California TRACON
15:26 33.9833 -117.9333 256° West 269 310 7,200 -1,080 Descending Southern California TRACON
15:27 33.9667 -118.0167 270° West 267 307 6,100 -1,140 Descending Southern California TRACON
15:28 33.9667 -118.1000 256° West 260 299 5,000 -1,380 Descending Southern California TRACON
15:29 33.9500 -118.1833 270° West 225 259 3,400 -1,260 Descending Southern California TRACON
15:30 33.9500 -118.2500 270° West 174 200 2,500 -900 Descending Southern California TRACON
15:31 33.9500 -118.3000 270° West 149 171 1,700 -840 Descending Southern California TRACON
15:32 33.9500 -118.3333 255° West 129 148 900 -540 Descending Southern California TRACON
15:34 33.9325 -118.4119 262° West 134 154 200 11,100 Descending Los Angeles Center
15:35 33.9275 -118.4544 259° West 134 154 32,000 16,020 Climbing Los Angeles Center
15:36 33.9206 -118.4992 259° West 134 154 32,000  Level Los Angeles Center